createdAt,value
2022-07-27T00:01:13.049Z,8.02
2022-07-27T00:03:41.210Z,7.28
2022-07-27T00:06:08.778Z,9.18
2022-07-27T00:08:36.391Z,8.98
2022-07-27T00:11:04.923Z,9.05
2022-07-27T00:13:32.362Z,8.90
2022-07-27T00:15:59.881Z,6.53
2022-07-27T00:18:27.679Z,8.55
2022-07-27T00:20:55.144Z,7.57
2022-07-27T00:23:22.541Z,8.02
2022-07-27T00:25:50.289Z,8.23
2022-07-27T00:28:17.706Z,8.88
2022-07-27T00:30:45.224Z,8.27
2022-07-27T00:33:16.988Z,9.10
2022-07-27T00:35:45.094Z,8.70
2022-07-27T00:38:12.770Z,7.60
2022-07-27T00:40:40.362Z,9.35
2022-07-27T00:43:07.796Z,9.20
2022-07-27T00:45:35.570Z,9.85
2022-07-27T00:48:02.981Z,8.68
2022-07-27T00:50:30.496Z,9.75
2022-07-27T00:52:58.398Z,10.23
2022-07-27T00:55:27.572Z,9.88
2022-07-27T00:57:59.409Z,8.48
2022-07-27T01:00:28.200Z,8.23
2022-07-27T01:02:57.453Z,8.70
2022-07-27T01:05:36.148Z,7.57
2022-07-27T01:08:06.976Z,8.20
2022-07-27T01:10:34.808Z,8.98
2022-07-27T01:13:02.709Z,7.80
2022-07-27T01:15:30.981Z,7.22
2022-07-27T01:18:04.544Z,9.00
2022-07-27T01:20:33.780Z,8.80
2022-07-27T01:23:01.234Z,9.63
2022-07-27T01:25:28.653Z,6.80
2022-07-27T01:27:56.370Z,7.57
2022-07-27T01:30:32.621Z,7.20
2022-07-27T01:33:04.608Z,6.90
2022-07-27T01:35:32.790Z,7.30
2022-07-27T01:38:00.714Z,9.52
2022-07-27T01:40:28.408Z,7.40
2022-07-27T01:42:55.833Z,8.48
2022-07-27T01:45:23.575Z,9.23
2022-07-27T01:47:51.023Z,9.23
2022-07-27T01:50:18.489Z,10.07
2022-07-27T01:52:46.166Z,10.35
2022-07-27T01:55:13.652Z,9.70
2022-07-27T01:57:41.069Z,10.25
2022-07-27T02:00:11.380Z,10.25
2022-07-27T02:02:40.133Z,11.82
2022-07-27T02:05:11.950Z,13.80
2022-07-27T02:07:42.460Z,14.68
2022-07-27T02:10:10.545Z,12.57
2022-07-27T02:12:38.399Z,15.65
2022-07-27T02:15:22.004Z,10.93
2022-07-27T02:20:24.726Z,12.32
2022-07-27T02:22:52.335Z,12.93
2022-07-27T02:25:20.268Z,12.27
2022-07-27T02:27:48.120Z,11.98
2022-07-27T02:30:17.861Z,10.95
2022-07-27T02:32:45.773Z,10.70
2022-07-27T02:35:19.875Z,10.18
2022-07-27T02:37:49.017Z,13.07
2022-07-27T02:40:18.690Z,11.05
2022-07-27T02:42:47.071Z,12.15
2022-07-27T02:45:15.624Z,10.25
2022-07-27T02:47:44.075Z,9.68
2022-07-27T02:50:11.972Z,14.40
2022-07-27T02:52:39.982Z,8.88
2022-07-27T02:55:08.094Z,12.70
2022-07-27T02:57:37.900Z,10.52
2022-07-27T03:00:07.761Z,12.85
2022-07-27T03:02:35.598Z,12.32
2022-07-27T03:05:07.798Z,10.73
2022-07-27T03:07:35.678Z,10.93
2022-07-27T03:10:03.213Z,12.88
2022-07-27T03:12:31.373Z,10.95
2022-07-27T03:14:59.093Z,11.98
2022-07-27T03:17:26.596Z,12.68
2022-07-27T03:19:54.063Z,11.00
2022-07-27T03:22:21.745Z,9.32
2022-07-27T03:24:49.183Z,9.38
2022-07-27T03:27:16.951Z,9.65
2022-07-27T03:29:44.635Z,10.95
2022-07-27T03:32:12.064Z,11.63
2022-07-27T03:34:39.535Z,9.55
2022-07-27T03:37:07.216Z,10.07
2022-07-27T03:39:34.907Z,9.50
2022-07-27T03:42:02.425Z,10.82
2022-07-27T03:44:30.110Z,9.70
2022-07-27T03:46:57.519Z,8.75
2022-07-27T03:49:25.028Z,8.75
2022-07-27T03:51:52.911Z,10.20
2022-07-27T03:54:20.418Z,9.65
2022-07-27T03:56:47.845Z,8.90
2022-07-27T03:59:16.249Z,9.85
2022-07-27T04:01:43.792Z,11.38
2022-07-27T04:04:11.543Z,10.60
2022-07-27T04:06:39.001Z,10.20
2022-07-27T04:09:08.191Z,10.52
2022-07-27T04:11:37.781Z,10.23
2022-07-27T04:14:12.824Z,10.60
2022-07-27T04:16:41.450Z,10.95
2022-07-27T04:19:09.427Z,8.45
2022-07-27T04:21:37.532Z,10.77
2022-07-27T04:24:05.665Z,10.23
2022-07-27T04:26:33.193Z,10.88
2022-07-27T04:29:00.664Z,11.43
2022-07-27T04:31:28.331Z,11.35
2022-07-27T04:33:55.815Z,7.82
2022-07-27T04:36:23.219Z,15.02
2022-07-27T04:38:50.903Z,9.52
2022-07-27T04:41:18.359Z,9.95
2022-07-27T04:43:45.796Z,12.43
2022-07-27T04:46:16.555Z,10.73
2022-07-27T04:48:49.009Z,11.52
2022-07-27T04:51:18.076Z,10.43
2022-07-27T04:53:52.419Z,11.38
2022-07-27T04:56:26.927Z,11.57
2022-07-27T04:58:56.129Z,9.18
2022-07-27T05:01:23.788Z,11.98
2022-07-27T05:03:52.210Z,12.25
2022-07-27T05:06:19.835Z,9.32
2022-07-27T05:08:47.217Z,11.15
2022-07-27T05:11:14.926Z,9.15
2022-07-27T05:13:42.444Z,11.70
2022-07-27T05:16:10.825Z,10.98
2022-07-27T05:18:38.819Z,11.65
2022-07-27T05:21:06.789Z,10.88
2022-07-27T05:23:34.650Z,9.85
2022-07-27T05:26:02.440Z,9.73
2022-07-27T05:28:29.848Z,10.23
2022-07-27T05:30:57.272Z,11.68
2022-07-27T05:33:25.610Z,12.10
2022-07-27T05:35:53.053Z,10.48
2022-07-27T05:38:21.241Z,7.97
2022-07-27T05:40:49.053Z,8.48
2022-07-27T05:43:16.446Z,10.57
2022-07-27T05:45:43.978Z,12.63
2022-07-27T05:48:11.729Z,8.88
2022-07-27T05:50:39.291Z,11.95
2022-07-27T05:53:06.745Z,7.43
2022-07-27T05:55:34.466Z,9.35
2022-07-27T05:58:02.023Z,9.48
2022-07-27T06:00:29.510Z,8.75
2022-07-27T06:02:57.397Z,8.55
2022-07-27T06:05:24.921Z,8.45
2022-07-27T06:08:08.939Z,8.10
2022-07-27T06:10:37.690Z,8.60
2022-07-27T06:13:07.233Z,8.27
2022-07-27T06:15:35.282Z,10.30
2022-07-27T06:18:03.937Z,11.60
2022-07-27T06:20:31.787Z,8.50
2022-07-27T06:23:00.852Z,10.05
2022-07-27T06:25:34.573Z,10.35
2022-07-27T06:28:04.503Z,10.43
2022-07-27T06:30:32.374Z,10.07
2022-07-27T06:33:00.525Z,8.18
2022-07-27T06:35:27.998Z,7.70
2022-07-27T06:37:55.663Z,6.57
2022-07-27T06:40:26.262Z,7.72
2022-07-27T06:42:56.373Z,7.60
2022-07-27T06:45:24.704Z,6.60
2022-07-27T06:47:52.311Z,6.82
2022-07-27T06:50:20.799Z,5.25
2022-07-27T06:52:49.687Z,8.27
2022-07-27T06:55:17.794Z,5.93
2022-07-27T06:57:46.559Z,5.82
2022-07-27T07:00:14.837Z,7.40
2022-07-27T07:03:08.488Z,6.97
2022-07-27T07:05:45.207Z,6.18
2022-07-27T07:08:14.557Z,6.70
2022-07-27T07:10:44.652Z,6.60
2022-07-27T07:13:12.142Z,4.43
2022-07-27T07:15:40.817Z,5.15
2022-07-27T07:18:09.364Z,7.20
2022-07-27T07:20:37.601Z,3.62
2022-07-27T07:23:05.658Z,5.50
2022-07-27T07:25:33.906Z,5.65
2022-07-27T07:28:02.431Z,4.85
2022-07-27T07:30:30.653Z,4.75
2022-07-27T07:32:58.550Z,6.37
2022-07-27T07:35:27.237Z,3.55
2022-07-27T07:37:54.750Z,4.60
2022-07-27T07:40:42.711Z,6.10
2022-07-27T07:43:13.290Z,6.32
2022-07-27T07:45:51.114Z,5.45
2022-07-27T07:48:21.161Z,6.37
2022-07-27T07:50:52.119Z,5.00
2022-07-27T07:53:24.038Z,5.20
2022-07-27T07:55:53.321Z,4.70
2022-07-27T07:58:20.851Z,3.60
2022-07-27T08:00:48.519Z,5.45
2022-07-27T08:03:16.481Z,4.45
2022-07-27T08:05:43.997Z,4.95
2022-07-27T08:08:11.543Z,5.12
2022-07-27T08:10:39.272Z,6.00
2022-07-27T08:13:06.681Z,5.00
2022-07-27T08:15:35.694Z,5.57
2022-07-27T08:18:05.744Z,6.03
2022-07-27T08:20:33.925Z,5.05
2022-07-27T08:23:01.692Z,5.53
2022-07-27T08:25:29.743Z,6.87
2022-07-27T08:27:57.624Z,7.30
2022-07-27T08:30:25.461Z,8.77
2022-07-27T08:32:59.898Z,11.02
2022-07-27T08:35:28.820Z,8.90
2022-07-27T08:37:57.202Z,14.00
2022-07-27T08:40:43.699Z,7.78
2022-07-27T08:43:18.909Z,14.27
2022-07-27T08:45:54.272Z,17.98
2022-07-27T08:48:24.913Z,17.73
2022-07-27T08:50:53.558Z,19.12
2022-07-27T08:53:22.169Z,18.17
2022-07-27T08:55:50.073Z,14.27
2022-07-27T08:58:17.513Z,16.00
2022-07-27T09:00:48.417Z,14.20
2022-07-27T09:03:20.165Z,11.98
2022-07-27T09:05:50.768Z,11.07
2022-07-27T09:08:30.461Z,10.80
2022-07-27T09:10:59.878Z,7.25
2022-07-27T09:13:34.145Z,7.28
2022-07-27T09:16:23.507Z,6.65
2022-07-27T09:19:02.870Z,8.52
2022-07-27T09:21:30.437Z,7.87
2022-07-27T09:24:18.123Z,7.87
2022-07-27T09:27:02.859Z,7.78
2022-07-27T09:29:34.803Z,8.65
2022-07-27T09:32:14.172Z,8.88
2022-07-27T09:34:42.060Z,6.72
2022-07-27T09:37:12.456Z,7.62
2022-07-27T09:39:40.095Z,7.78
2022-07-27T09:43:02.760Z,9.73
2022-07-27T09:45:04.399Z,7.75
2022-07-27T09:47:33.228Z,8.35
2022-07-27T09:50:21.146Z,7.20
2022-07-27T09:52:48.934Z,6.70
2022-07-27T09:55:20.385Z,6.28
2022-07-27T09:58:06.042Z,7.40
2022-07-27T10:00:34.108Z,9.18
2022-07-27T10:03:01.950Z,9.02
2022-07-27T10:05:29.453Z,6.28
2022-07-27T10:07:56.925Z,7.30
2022-07-27T10:10:24.956Z,9.23
2022-07-27T10:12:55.610Z,7.57
2022-07-27T10:15:25.278Z,7.75
2022-07-27T10:18:01.668Z,8.20
2022-07-27T10:20:30.011Z,7.53
2022-07-27T10:22:58.961Z,7.93
2022-07-27T10:25:32.434Z,8.70
2022-07-27T10:28:13.262Z,8.38
2022-07-27T10:30:40.893Z,9.85
2022-07-27T10:33:42.943Z,8.68
2022-07-27T10:36:19.625Z,7.82
2022-07-27T10:39:07.172Z,5.90
2022-07-27T10:41:43.878Z,5.78
2022-07-27T10:44:23.853Z,6.45
2022-07-27T10:46:54.731Z,7.82
2022-07-27T10:49:26.357Z,8.45
2022-07-27T10:51:55.263Z,7.40
2022-07-27T10:54:30.797Z,7.80
2022-07-27T10:56:59.879Z,6.72
2022-07-27T11:02:42.627Z,8.77
2022-07-27T11:05:53.703Z,7.63
2022-07-27T11:10:48.379Z,8.15
2022-07-27T11:13:20.315Z,7.00
2022-07-27T11:16:04.622Z,7.35
2022-07-27T11:18:45.123Z,8.02
2022-07-27T11:21:26.786Z,7.82
2022-07-27T11:24:00.159Z,7.00
2022-07-27T11:26:29.846Z,6.30
2022-07-27T11:28:57.318Z,7.57
2022-07-27T11:31:52.691Z,7.07
2022-07-27T11:34:14.374Z,6.45
2022-07-27T11:36:50.407Z,7.15
2022-07-27T11:39:54.459Z,8.52
2022-07-27T11:42:17.773Z,7.57
2022-07-27T11:44:49.329Z,6.37
2022-07-27T11:47:19.868Z,7.05
2022-07-27T11:49:47.387Z,6.37
2022-07-27T11:52:17.665Z,7.78
2022-07-27T11:54:51.049Z,6.87
2022-07-27T11:57:20.552Z,7.18
2022-07-27T11:59:48.585Z,7.32
2022-07-27T12:02:18.400Z,5.60
2022-07-27T12:04:50.924Z,6.62
2022-07-27T12:07:36.982Z,7.10
2022-07-27T12:10:06.957Z,6.72
2022-07-27T12:12:36.115Z,11.77
2022-07-27T12:18:06.126Z,5.97
2022-07-27T12:20:35.004Z,9.40
2022-07-27T12:23:07.418Z,7.25
2022-07-27T12:25:36.417Z,6.27
2022-07-27T12:28:06.800Z,7.62
2022-07-27T12:30:48.369Z,8.32
2022-07-27T12:33:35.580Z,6.35
2022-07-27T12:36:05.328Z,5.70
2022-07-27T12:38:41.094Z,7.30
2022-07-27T12:41:08.538Z,6.30
2022-07-27T12:43:36.367Z,5.70
2022-07-27T12:46:14.113Z,7.28
2022-07-27T12:48:43.015Z,6.00
2022-07-27T12:51:11.207Z,8.93
2022-07-27T12:53:39.120Z,6.95
2022-07-27T12:56:10.000Z,6.30
2022-07-27T12:58:37.765Z,7.25
2022-07-27T13:01:06.831Z,8.02
2022-07-27T13:03:37.013Z,5.43
2022-07-27T13:06:09.205Z,5.70
2022-07-27T13:11:05.666Z,7.15
2022-07-27T13:13:33.081Z,6.55
2022-07-27T13:16:01.200Z,5.07
2022-07-27T13:18:28.679Z,6.75
2022-07-27T13:20:56.111Z,6.97
2022-07-27T13:23:23.895Z,7.95
2022-07-27T13:25:51.315Z,5.90
2022-07-27T13:28:18.818Z,7.53
2022-07-27T13:30:46.479Z,8.90
2022-07-27T13:33:13.879Z,7.30
2022-07-27T13:35:41.416Z,7.28
2022-07-27T13:38:13.090Z,5.32
2022-07-27T13:40:45.063Z,5.30
2022-07-27T13:43:12.775Z,6.28
2022-07-27T13:45:43.041Z,8.45
2022-07-27T13:48:12.114Z,5.25
2022-07-27T13:50:40.092Z,7.80
2022-07-27T13:53:07.553Z,7.15
2022-07-27T13:55:35.421Z,5.93
2022-07-27T13:58:03.117Z,5.53
2022-07-27T14:00:30.664Z,6.62
2022-07-27T14:02:58.392Z,6.75
2022-07-27T14:05:25.881Z,6.12
2022-07-27T14:07:55.613Z,7.03
2022-07-27T14:10:32.412Z,6.40
2022-07-27T14:13:08.158Z,4.28
2022-07-27T14:15:55.664Z,6.35
2022-07-27T14:18:24.903Z,5.32
2022-07-27T14:20:53.141Z,7.00
2022-07-27T14:23:21.048Z,4.50
2022-07-27T14:25:48.487Z,4.72
2022-07-27T14:28:16.285Z,7.28
2022-07-27T14:30:44.207Z,4.53
2022-07-27T14:33:11.685Z,4.00
2022-07-27T14:35:40.843Z,6.07
2022-07-27T14:38:10.774Z,4.50
2022-07-27T14:40:38.988Z,5.07
2022-07-27T14:43:06.778Z,6.32
2022-07-27T14:45:44.429Z,4.90
2022-07-27T14:48:28.184Z,4.75
2022-07-27T14:51:05.402Z,8.57
2022-07-27T14:53:33.217Z,9.80
2022-07-27T14:56:00.772Z,5.07
2022-07-27T14:58:28.225Z,5.95
2022-07-27T15:00:56.021Z,3.85
2022-07-27T15:03:23.436Z,4.80
2022-07-27T15:05:51.708Z,4.87
2022-07-27T15:08:20.133Z,3.53
2022-07-27T15:10:48.664Z,3.60
2022-07-27T15:13:17.199Z,4.40
2022-07-27T15:15:48.468Z,4.50
2022-07-27T15:18:18.825Z,6.03
2022-07-27T15:20:49.657Z,8.13
2022-07-27T15:23:17.202Z,4.70
2022-07-27T15:25:44.740Z,7.95
2022-07-27T15:28:12.896Z,5.40
2022-07-27T15:30:40.390Z,4.43
2022-07-27T15:33:07.927Z,3.67
2022-07-27T15:35:35.922Z,4.68
2022-07-27T15:38:03.547Z,5.97
2022-07-27T15:40:37.294Z,6.65
2022-07-27T15:43:06.894Z,5.15
2022-07-27T15:45:38.687Z,7.53
2022-07-27T15:48:08.502Z,3.10
2022-07-27T15:50:37.506Z,4.25
2022-07-27T15:53:05.667Z,3.17
2022-07-27T15:55:35.024Z,4.12
2022-07-27T15:58:03.414Z,4.72
2022-07-27T16:00:34.195Z,4.22
2022-07-27T16:03:05.786Z,4.93
2022-07-27T16:05:33.666Z,7.53
2022-07-27T16:08:01.093Z,3.35
2022-07-27T16:10:29.982Z,4.25
2022-07-27T16:12:57.706Z,5.65
2022-07-27T16:15:45.228Z,5.95
2022-07-27T16:18:13.001Z,4.35
2022-07-27T16:20:40.405Z,4.78
2022-07-27T16:23:18.164Z,6.57
2022-07-27T16:26:08.121Z,4.65
2022-07-27T16:28:39.072Z,4.97
2022-07-27T16:31:08.965Z,4.68
2022-07-27T16:33:36.814Z,5.53
2022-07-27T16:36:05.530Z,4.68
2022-07-27T16:38:33.381Z,4.18
2022-07-27T16:41:00.788Z,6.15
2022-07-27T16:43:37.936Z,7.82
2022-07-27T16:46:08.428Z,5.50
2022-07-27T16:48:42.571Z,4.18
2022-07-27T16:51:12.678Z,6.07
2022-07-27T16:53:41.472Z,5.78
2022-07-27T16:56:09.493Z,3.90
2022-07-27T16:58:37.760Z,5.10
2022-07-27T17:01:06.746Z,4.97
2022-07-27T17:03:34.349Z,5.40
2022-07-27T17:06:06.055Z,5.43
2022-07-27T17:08:35.922Z,6.65
2022-07-27T17:11:06.039Z,5.03
2022-07-27T17:13:34.765Z,5.53
2022-07-27T17:16:04.200Z,6.50
2022-07-27T17:18:38.915Z,6.28
2022-07-27T17:21:07.607Z,7.22
2022-07-27T17:23:38.249Z,4.50
2022-07-27T17:26:07.352Z,6.68
2022-07-27T17:28:38.997Z,6.35
2022-07-27T17:31:09.209Z,8.10
2022-07-27T17:33:38.184Z,5.60
2022-07-27T17:36:09.712Z,6.25
2022-07-27T17:38:46.396Z,5.75
2022-07-27T17:41:14.781Z,5.85
2022-07-27T17:43:42.551Z,5.57
2022-07-27T17:46:11.561Z,4.78
2022-07-27T17:48:39.947Z,4.97
2022-07-27T17:51:08.699Z,6.30
2022-07-27T17:53:36.589Z,5.32
2022-07-27T17:56:04.962Z,9.43
2022-07-27T17:58:32.741Z,7.45
2022-07-27T18:01:00.165Z,5.35
2022-07-27T18:03:28.065Z,5.78
2022-07-27T18:05:55.674Z,5.47
2022-07-27T18:08:23.127Z,5.22
2022-07-27T18:10:51.655Z,5.18
2022-07-27T18:13:19.552Z,5.43
2022-07-27T18:15:47.264Z,7.03
2022-07-27T18:18:16.170Z,3.60
2022-07-27T18:20:46.237Z,3.35
2022-07-27T18:23:15.903Z,7.07
2022-07-27T18:25:45.057Z,3.37
2022-07-27T18:28:16.251Z,4.07
2022-07-27T18:30:45.997Z,5.85
2022-07-27T18:33:14.694Z,11.20
2022-07-27T18:35:43.364Z,3.20
2022-07-27T18:38:11.596Z,5.53
2022-07-27T18:40:42.615Z,4.87
2022-07-27T18:43:10.885Z,3.58
2022-07-27T18:45:39.651Z,5.10
2022-07-27T18:48:10.121Z,5.43
2022-07-27T18:50:39.875Z,3.28
2022-07-27T18:53:08.376Z,6.50
2022-07-27T18:55:36.174Z,3.75
2022-07-27T18:58:04.236Z,6.30
2022-07-27T19:00:33.474Z,4.32
2022-07-27T19:03:01.020Z,5.47
2022-07-27T19:05:40.429Z,4.82
2022-07-27T19:08:11.898Z,5.37
2022-07-27T19:10:42.462Z,6.35
2022-07-27T19:13:11.272Z,6.50
2022-07-27T19:15:39.100Z,7.40
2022-07-27T19:18:07.448Z,5.68
2022-07-27T19:20:36.680Z,5.30
2022-07-27T19:23:05.671Z,5.22
2022-07-27T19:25:33.998Z,5.85
2022-07-27T19:28:03.229Z,6.55
2022-07-27T19:30:31.039Z,6.55
2022-07-27T19:32:58.908Z,8.18
2022-07-27T19:35:26.823Z,10.93
2022-07-27T19:37:54.265Z,5.03
2022-07-27T19:43:09.447Z,7.35
2022-07-27T19:45:37.140Z,4.97
2022-07-27T19:48:05.678Z,5.57
2022-07-27T19:50:33.362Z,5.35
2022-07-27T19:53:04.359Z,6.03
2022-07-27T19:55:31.930Z,6.20
2022-07-27T19:58:00.004Z,7.72
2022-07-27T20:00:27.733Z,8.10
2022-07-27T20:02:55.465Z,8.25
2022-07-27T20:05:23.072Z,6.93
2022-07-27T20:07:50.516Z,6.80
2022-07-27T20:10:21.584Z,7.03
2022-07-27T20:12:48.998Z,6.82
2022-07-27T20:15:16.611Z,6.60
2022-07-27T20:17:44.422Z,5.80
2022-07-27T20:20:12.092Z,6.35
2022-07-27T20:22:41.012Z,5.43
2022-07-27T20:25:10.588Z,4.80
2022-07-27T20:27:38.253Z,6.60
2022-07-27T20:30:06.328Z,6.72
2022-07-27T20:32:34.072Z,6.30
2022-07-27T20:35:02.001Z,5.53
2022-07-27T20:37:29.406Z,5.68
2022-07-27T20:39:57.097Z,4.85
2022-07-27T20:42:24.636Z,4.93
2022-07-27T20:44:52.091Z,4.57
2022-07-27T20:47:20.304Z,5.82
2022-07-27T20:49:47.742Z,5.95
2022-07-27T20:52:15.914Z,6.62
2022-07-27T20:54:43.640Z,6.72
2022-07-27T20:57:11.174Z,6.03
2022-07-27T20:59:38.591Z,4.65
2022-07-27T21:02:07.750Z,4.85
2022-07-27T21:04:35.565Z,4.32
2022-07-27T21:07:03.007Z,4.55
2022-07-27T21:09:31.681Z,5.93
2022-07-27T21:11:59.172Z,5.35
2022-07-27T21:14:26.578Z,5.45
2022-07-27T21:16:54.355Z,4.93
2022-07-27T21:19:22.572Z,4.53
2022-07-27T21:21:50.183Z,4.85
2022-07-27T21:24:19.939Z,4.32
2022-07-27T21:26:49.390Z,6.05
2022-07-27T21:29:17.357Z,3.37
2022-07-27T21:31:49.227Z,3.83
2022-07-27T21:34:19.653Z,5.00
2022-07-27T21:36:48.060Z,5.05
2022-07-27T21:39:16.025Z,4.62
2022-07-27T21:41:43.638Z,2.53
2022-07-27T21:44:11.648Z,4.93
2022-07-27T21:46:39.394Z,4.53
2022-07-27T21:49:06.917Z,3.97
2022-07-27T21:51:34.737Z,3.83
2022-07-27T21:54:02.186Z,4.72
2022-07-27T21:56:29.710Z,4.00
2022-07-27T21:58:57.429Z,4.03
2022-07-27T22:01:24.929Z,2.87
2022-07-27T22:03:52.714Z,3.83
2022-07-27T22:06:20.323Z,3.55
2022-07-27T22:08:47.950Z,3.15
2022-07-27T22:11:15.634Z,3.10
2022-07-27T22:13:43.047Z,4.57
2022-07-27T22:16:12.594Z,3.90
2022-07-27T22:18:40.496Z,3.92
2022-07-27T22:21:08.897Z,3.95
2022-07-27T22:23:36.338Z,2.83
2022-07-27T22:26:04.069Z,3.62
2022-07-27T22:28:31.539Z,3.50
2022-07-27T22:31:22.220Z,2.97
2022-07-27T22:33:47.692Z,3.30
2022-07-27T22:36:15.461Z,3.87
2022-07-27T22:38:42.918Z,3.30
2022-07-27T22:41:10.692Z,3.87
2022-07-27T22:43:38.132Z,5.50
2022-07-27T22:46:05.898Z,5.20
2022-07-27T22:48:33.681Z,3.50
2022-07-27T22:51:01.139Z,3.58
2022-07-27T22:53:28.552Z,3.17
2022-07-27T22:55:56.350Z,3.95
2022-07-27T22:58:23.771Z,3.78
2022-07-27T23:00:53.591Z,4.45
2022-07-27T23:03:25.156Z,2.40
2022-07-27T23:05:52.582Z,3.15
2022-07-27T23:08:20.003Z,3.65
2022-07-27T23:10:47.878Z,5.30
2022-07-27T23:13:16.656Z,3.30
2022-07-27T23:15:45.002Z,2.70
2022-07-27T23:18:13.071Z,4.62
2022-07-27T23:20:41.717Z,4.05
2022-07-27T23:23:15.717Z,2.97
2022-07-27T23:25:49.055Z,3.37
2022-07-27T23:28:16.722Z,2.70
2022-07-27T23:30:44.592Z,2.80
2022-07-27T23:33:12.216Z,3.90
2022-07-27T23:35:39.678Z,2.90
2022-07-27T23:38:07.357Z,2.70
2022-07-27T23:40:35.173Z,4.22
2022-07-27T23:43:02.615Z,2.72
2022-07-27T23:45:30.415Z,3.20
2022-07-27T23:47:57.855Z,3.47
2022-07-27T23:50:26.194Z,3.40
2022-07-27T23:52:53.923Z,2.85
2022-07-27T23:55:21.352Z,3.78
2022-07-27T23:57:48.813Z,2.70
